sensor_id;sensor_type;location;lat;lon;timestamp;pressure;altitude;pressure_sealevel;temperature;humidity
8049;BME280;20935;42.660;23.342;2023-08-12T00:01:59;95311.63;;;26.01;49.05
8049;BME280;20935;42.660;23.342;2023-08-12T00:04:45;95309.66;;;26.01;48.93
8049;BME280;20935;42.660;23.342;2023-08-12T00:07:33;95307.66;;;26.02;49.23
8049;BME280;20935;42.660;23.342;2023-08-12T00:10:18;95303.41;;;26.01;48.88
8049;BME280;20935;42.660;23.342;2023-08-12T00:13:03;95306.91;;;26.01;48.68
8049;BME280;20935;42.660;23.342;2023-08-12T00:15:49;95304.91;;;26.02;48.99
8049;BME280;20935;42.660;23.342;2023-08-12T00:18:34;95304.91;;;26.02;48.88
8049;BME280;20935;42.660;23.342;2023-08-12T00:21:21;95306.44;;;26.03;48.71
8049;BME280;20935;42.660;23.342;2023-08-12T00:24:07;95301.41;;;26.01;48.85
8049;BME280;20935;42.660;23.342;2023-08-12T00:26:53;95301.41;;;26.01;48.73
8049;BME280;20935;42.660;23.342;2023-08-12T00:29:38;95301.41;;;26.01;48.91
8049;BME280;20935;42.660;23.342;2023-08-12T00:32:24;95306.91;;;26.01;48.24
8049;BME280;20935;42.660;23.342;2023-08-12T00:35:09;95289.41;;;25.99;48.42
8049;BME280;20935;42.660;23.342;2023-08-12T00:37:54;95292.91;;;25.99;48.33
8049;BME280;20935;42.660;23.342;2023-08-12T00:40:41;95291.66;;;26.00;48.63
8049;BME280;20935;42.660;23.342;2023-08-12T00:43:27;95292.41;;;26.01;48.22
8049;BME280;20935;42.660;23.342;2023-08-12T00:46:12;95288.91;;;26.00;48.47
8049;BME280;20935;42.660;23.342;2023-08-12T00:48:58;95296.38;;;26.00;48.56
8049;BME280;20935;42.660;23.342;2023-08-12T00:51:44;95295.66;;;25.99;48.55
8049;BME280;20935;42.660;23.342;2023-08-12T00:54:30;95292.16;;;25.99;48.22
8049;BME280;20935;42.660;23.342;2023-08-12T00:57:17;95290.91;;;26.00;48.01
8049;BME280;20935;42.660;23.342;2023-08-12T01:00:04;95292.16;;;25.99;48.59
8049;BME280;20935;42.660;23.342;2023-08-12T01:02:49;95285.16;;;25.98;48.41
8049;BME280;20935;42.660;23.342;2023-08-12T01:05:35;95288.16;;;26.00;47.87
8049;BME280;20935;42.660;23.342;2023-08-12T01:08:21;95281.63;;;25.97;47.94
8049;BME280;20935;42.660;23.342;2023-08-12T01:11:13;95280.13;;;25.96;47.94
8049;BME280;20935;42.660;23.342;2023-08-12T01:14:06;95287.59;;;25.96;47.91
8049;BME280;20935;42.660;23.342;2023-08-12T01:16:58;95284.59;;;25.94;48.22
8049;BME280;20935;42.660;23.342;2023-08-12T01:19:47;95286.88;;;25.95;48.03
8049;BME280;20935;42.660;23.342;2023-08-12T01:22:34;95285.34;;;25.94;48.19
8049;BME280;20935;42.660;23.342;2023-08-12T01:25:25;95284.59;;;25.94;47.88
8049;BME280;20935;42.660;23.342;2023-08-12T01:28:10;95284.59;;;25.94;48.19
8049;BME280;20935;42.660;23.342;2023-08-12T01:30:58;95278.09;;;25.91;47.71
8049;BME280;20935;42.660;23.342;2023-08-12T01:33:53;95277.59;;;25.93;48.08
8049;BME280;20935;42.660;23.342;2023-08-12T01:36:46;95274.09;;;25.92;47.63
8049;BME280;20935;42.660;23.342;2023-08-12T01:39:32;95274.09;;;25.92;47.85
8049;BME280;20935;42.660;23.342;2023-08-12T01:42:20;95271.84;;;25.91;47.99
8049;BME280;20935;42.660;23.342;2023-08-12T01:45:07;95271.84;;;25.91;47.59
8049;BME280;20935;42.660;23.342;2023-08-12T01:47:52;95278.81;;;25.92;47.38
8049;BME280;20935;42.660;23.342;2023-08-12T01:50:38;95281.28;;;25.90;47.49
8049;BME280;20935;42.660;23.342;2023-08-12T01:53:23;95279.31;;;25.90;47.38
8049;BME280;20935;42.660;23.342;2023-08-12T01:56:08;95282.81;;;25.91;47.70
8049;BME280;20935;42.660;23.342;2023-08-12T01:58:55;95281.28;;;25.90;47.40
8049;BME280;20935;42.660;23.342;2023-08-12T02:01:40;95274.28;;;25.89;47.46
8049;BME280;20935;42.660;23.342;2023-08-12T02:04:26;95272.78;;;25.88;47.49
8049;BME280;20935;42.660;23.342;2023-08-12T02:07:12;95276.28;;;25.88;47.02
8049;BME280;20935;42.660;23.342;2023-08-12T02:09:57;95279.53;;;25.87;46.98
8049;BME280;20935;42.660;23.342;2023-08-12T02:12:43;95284.25;;;25.86;47.39
8049;BME280;20935;42.660;23.342;2023-08-12T02:15:30;95274.78;;;25.87;47.45
8049;BME280;20935;42.660;23.342;2023-08-12T02:18:15;95276.47;;;25.85;46.91
8049;BME280;20935;42.660;23.342;2023-08-12T02:21:00;95274.50;;;25.85;47.05
8049;BME280;20935;42.660;23.342;2023-08-12T02:23:46;95271.00;;;25.85;47.24
8049;BME280;20935;42.660;23.342;2023-08-12T02:26:31;95276.47;;;25.85;47.31
8049;BME280;20935;42.660;23.342;2023-08-12T02:29:17;95277.75;;;25.84;46.98
8049;BME280;20935;42.660;23.342;2023-08-12T02:32:04;95283.22;;;25.84;47.12
8049;BME280;20935;42.660;23.342;2023-08-12T02:34:50;95282.47;;;25.83;47.24
8049;BME280;20935;42.660;23.342;2023-08-12T02:37:35;95273.47;;;25.83;47.25
8049;BME280;20935;42.660;23.342;2023-08-12T02:40:21;95280.19;;;25.82;47.15
8049;BME280;20935;42.660;23.342;2023-08-12T02:43:06;95290.41;;;25.81;46.98
8049;BME280;20935;42.660;23.342;2023-08-12T02:45:52;95290.41;;;25.81;47.24
8049;BME280;20935;42.660;23.342;2023-08-12T02:48:38;95290.91;;;25.80;47.10
8049;BME280;20935;42.660;23.342;2023-08-12T02:51:23;95289.66;;;25.81;46.79
8049;BME280;20935;42.660;23.342;2023-08-12T02:54:09;95290.16;;;25.79;46.99
8049;BME280;20935;42.660;23.342;2023-08-12T02:56:54;95289.41;;;25.79;46.84
8049;BME280;20935;42.660;23.342;2023-08-12T02:59:40;95294.13;;;25.78;47.18
8049;BME280;20935;42.660;23.342;2023-08-12T03:02:25;95294.88;;;25.79;46.95
8049;BME280;20935;42.660;23.342;2023-08-12T03:05:12;95289.41;;;25.79;47.02
8049;BME280;20935;42.660;23.342;2023-08-12T03:07:58;95297.13;;;25.80;47.11
8049;BME280;20935;42.660;23.342;2023-08-12T03:10:45;95297.63;;;25.79;47.23
8049;BME280;20935;42.660;23.342;2023-08-12T03:13:31;95299.16;;;25.80;46.93
8049;BME280;20935;42.660;23.342;2023-08-12T03:16:16;95304.63;;;25.80;47.26
8049;BME280;20935;42.660;23.342;2023-08-12T03:19:01;95299.16;;;25.80;47.01
8049;BME280;20935;42.660;23.342;2023-08-12T03:21:48;95299.63;;;25.78;46.65
8049;BME280;20935;42.660;23.342;2023-08-12T03:24:34;95301.13;;;25.79;46.93
8049;BME280;20935;42.660;23.342;2023-08-12T03:27:19;95295.63;;;25.79;46.70
8049;BME280;20935;42.660;23.342;2023-08-12T03:30:06;95292.13;;;25.79;47.17
8049;BME280;20935;42.660;23.342;2023-08-12T03:32:51;95301.13;;;25.79;47.65
8049;BME280;20935;42.660;23.342;2023-08-12T03:35:37;95306.63;;;25.79;47.44
8049;BME280;20935;42.660;23.342;2023-08-12T03:38:24;95306.63;;;25.79;47.34
8049;BME280;20935;42.660;23.342;2023-08-12T03:41:09;95307.38;;;25.80;47.30
8049;BME280;20935;42.660;23.342;2023-08-12T03:43:55;95310.13;;;25.80;47.30
8049;BME280;20935;42.660;23.342;2023-08-12T03:46:40;95301.88;;;25.80;47.06
8049;BME280;20935;42.660;23.342;2023-08-12T03:49:26;95312.88;;;25.80;47.13
8049;BME280;20935;42.660;23.342;2023-08-12T03:52:11;95314.09;;;25.79;47.08
8049;BME280;20935;42.660;23.342;2023-08-12T03:54:58;95324.31;;;25.78;47.06
8049;BME280;20935;42.660;23.342;2023-08-12T03:57:43;95314.56;;;25.77;47.44
8049;BME280;20935;42.660;23.342;2023-08-12T04:00:29;95311.81;;;25.77;47.57
8049;BME280;20935;42.660;23.342;2023-08-12T04:03:15;95313.03;;;25.76;47.38
8049;BME280;20935;42.660;23.342;2023-08-12T04:06:00;95306.06;;;25.75;47.24
8049;BME280;20935;42.660;23.342;2023-08-12T04:08:47;95310.78;;;25.75;47.63
8049;BME280;20935;42.660;23.342;2023-08-12T04:11:33;95313.25;;;25.73;47.43
8049;BME280;20935;42.660;23.342;2023-08-12T04:14:19;95313.25;;;25.73;47.60
8049;BME280;20935;42.660;23.342;2023-08-12T04:17:04;95305.78;;;25.73;47.54
8049;BME280;20935;42.660;23.342;2023-08-12T04:19:50;95312.03;;;25.74;47.47
8049;BME280;20935;42.660;23.342;2023-08-12T04:22:35;95313.25;;;25.73;48.01
8049;BME280;20935;42.660;23.342;2023-08-12T04:25:08;95315.53;;;25.74;47.60
8049;BME280;20935;42.660;23.342;2023-08-12T04:27:55;95314.78;;;25.74;47.76
8049;BME280;20935;42.660;23.342;2023-08-12T04:30:41;95314.31;;;25.75;48.04
8049;BME280;20935;42.660;23.342;2023-08-12T04:33:26;95310.03;;;25.74;48.19
8049;BME280;20935;42.660;23.342;2023-08-12T04:36:12;95315.06;;;25.76;47.62
8049;BME280;20935;42.660;23.342;2023-08-12T04:38:57;95319.28;;;25.77;47.88
8049;BME280;20935;42.660;23.342;2023-08-12T04:41:43;95319.28;;;25.77;47.98
8049;BME280;20935;42.660;23.342;2023-08-12T04:44:29;95322.03;;;25.77;48.07
8049;BME280;20935;42.660;23.342;2023-08-12T04:47:15;95315.78;;;25.76;48.27
8049;BME280;20935;42.660;23.342;2023-08-12T04:50:00;95315.31;;;25.78;48.33
8049;BME280;20935;42.660;23.342;2023-08-12T04:52:46;95311.06;;;25.77;48.53
8049;BME280;20935;42.660;23.342;2023-08-12T04:55:31;95320.81;;;25.78;48.64
8049;BME280;20935;42.660;23.342;2023-08-12T04:58:17;95315.31;;;25.78;47.92
8049;BME280;20935;42.660;23.342;2023-08-12T05:01:04;95318.53;;;25.76;48.26
8049;BME280;20935;42.660;23.342;2023-08-12T05:03:50;95320.06;;;25.77;48.40
8049;BME280;20935;42.660;23.342;2023-08-12T05:06:35;95328.28;;;25.77;48.25
8049;BME280;20935;42.660;23.342;2023-08-12T05:09:20;95327.06;;;25.78;48.29
8049;BME280;20935;42.660;23.342;2023-08-12T05:12:07;95326.31;;;25.78;48.43
8049;BME280;20935;42.660;23.342;2023-08-12T05:14:52;95331.03;;;25.77;48.13
8049;BME280;20935;42.660;23.342;2023-08-12T05:17:39;95325.53;;;25.77;48.51
8049;BME280;20935;42.660;23.342;2023-08-12T05:20:25;95328.78;;;25.76;48.38
8049;BME280;20935;42.660;23.342;2023-08-12T05:23:10;95328.03;;;25.75;48.25
8049;BME280;20935;42.660;23.342;2023-08-12T05:25:55;95330.00;;;25.75;48.47
8049;BME280;20935;42.660;23.342;2023-08-12T05:28:41;95332.00;;;25.74;48.49
8049;BME280;20935;42.660;23.342;2023-08-12T05:31:26;95336.72;;;25.74;48.02
8049;BME280;20935;42.660;23.342;2023-08-12T05:34:13;95332.47;;;25.73;48.52
8049;BME280;20935;42.660;23.342;2023-08-12T05:36:59;95333.97;;;25.74;48.44
8049;BME280;20935;42.660;23.342;2023-08-12T05:39:45;95340.69;;;25.73;47.97
8049;BME280;20935;42.660;23.342;2023-08-12T05:42:30;95343.94;;;25.71;47.94
8049;BME280;20935;42.660;23.342;2023-08-12T05:45:16;95352.63;;;25.69;47.34
8049;BME280;20935;42.660;23.342;2023-08-12T05:48:01;95343.38;;;25.67;47.54
8049;BME280;20935;42.660;23.342;2023-08-12T05:50:48;95336.56;;;25.62;47.30
8049;BME280;20935;42.660;23.342;2023-08-12T05:53:33;95344.03;;;25.62;47.45
8049;BME280;20935;42.660;23.342;2023-08-12T05:56:18;95336.78;;;25.59;47.35
8049;BME280;20935;42.660;23.342;2023-08-12T05:59:04;95332.78;;;25.60;46.99
8049;BME280;20935;42.660;23.342;2023-08-12T06:01:50;95332.03;;;25.59;47.16
8049;BME280;20935;42.660;23.342;2023-08-12T06:04:35;95328.81;;;25.61;47.09
8049;BME280;20935;42.660;23.342;2023-08-12T06:07:22;95328.81;;;25.61;47.05
8049;BME280;20935;42.660;23.342;2023-08-12T06:10:08;95318.31;;;25.59;47.49
8049;BME280;20935;42.660;23.342;2023-08-12T06:12:54;95319.34;;;25.62;47.42
8049;BME280;20935;42.660;23.342;2023-08-12T06:15:39;95317.63;;;25.64;47.52
8049;BME280;20935;42.660;23.342;2023-08-12T06:18:25;95312.63;;;25.63;47.47
8049;BME280;20935;42.660;23.342;2023-08-12T06:21:10;95311.88;;;25.62;47.38
8049;BME280;20935;42.660;23.342;2023-08-12T06:23:58;95325.09;;;25.64;47.41
8049;BME280;20935;42.660;23.342;2023-08-12T06:26:43;95318.59;;;25.61;47.48
8049;BME280;20935;42.660;23.342;2023-08-12T06:29:29;95318.59;;;25.61;47.41
8049;BME280;20935;42.660;23.342;2023-08-12T06:32:15;95310.34;;;25.61;47.44
8049;BME280;20935;42.660;23.342;2023-08-12T06:35:00;95310.66;;;25.63;47.66
8049;BME280;20935;42.660;23.342;2023-08-12T06:37:46;95313.41;;;25.63;47.64
8049;BME280;20935;42.660;23.342;2023-08-12T06:40:32;95299.19;;;25.65;47.57
8049;BME280;20935;42.660;23.342;2023-08-12T06:43:18;95296.22;;;25.68;48.85
8049;BME280;20935;42.660;23.342;2023-08-12T06:46:03;95304.56;;;25.74;48.64
8049;BME280;20935;42.660;23.342;2023-08-12T06:48:49;95295.63;;;25.79;49.43
8049;BME280;20935;42.660;23.342;2023-08-12T06:51:34;95294.47;;;25.86;50.55
8049;BME280;20935;42.660;23.342;2023-08-12T06:54:20;95299.28;;;25.91;51.39
8049;BME280;20935;42.660;23.342;2023-08-12T06:57:08;95293.09;;;25.96;52.17
8049;BME280;20935;42.660;23.342;2023-08-12T06:59:55;95296.13;;;25.98;52.53
8049;BME280;20935;42.660;23.342;2023-08-12T07:02:41;95292.16;;;25.99;52.33
8049;BME280;20935;42.660;23.342;2023-08-12T07:05:26;95299.13;;;26.00;52.27
8049;BME280;20935;42.660;23.342;2023-08-12T07:08:12;95287.41;;;25.99;53.15
8049;BME280;20935;42.660;23.342;2023-08-12T07:10:57;95293.63;;;26.00;53.25
8049;BME280;20935;42.660;23.342;2023-08-12T07:13:44;95288.16;;;26.00;52.94
8049;BME280;20935;42.660;23.342;2023-08-12T07:16:30;95293.94;;;26.02;53.10
8049;BME280;20935;42.660;23.342;2023-08-12T07:19:15;95287.22;;;26.03;53.47
8049;BME280;20935;42.660;23.342;2023-08-12T07:22:01;95285.22;;;26.03;53.36
8049;BME280;20935;42.660;23.342;2023-08-12T07:24:46;95294.19;;;26.04;53.47
8049;BME280;20935;42.660;23.342;2023-08-12T07:27:31;95286.72;;;26.04;53.62
8049;BME280;20935;42.660;23.342;2023-08-12T07:30:18;95286.72;;;26.04;53.35
8049;BME280;20935;42.660;23.342;2023-08-12T07:33:04;95285.47;;;26.05;53.67
8049;BME280;20935;42.660;23.342;2023-08-12T07:35:50;95282.72;;;26.05;53.68
8049;BME280;20935;42.660;23.342;2023-08-12T07:38:35;95281.50;;;26.06;53.67
8049;BME280;20935;42.660;23.342;2023-08-12T07:41:20;95284.25;;;26.06;54.17
8049;BME280;20935;42.660;23.342;2023-08-12T07:44:06;95285.78;;;26.07;53.75
8049;BME280;20935;42.660;23.342;2023-08-12T07:46:53;95283.75;;;26.08;53.99
8049;BME280;20935;42.660;23.342;2023-08-12T07:49:38;95272.78;;;26.08;54.10
8049;BME280;20935;42.660;23.342;2023-08-12T07:52:23;95282.53;;;26.09;54.10
8049;BME280;20935;42.660;23.342;2023-08-12T07:55:09;95274.28;;;26.09;54.20
8049;BME280;20935;42.660;23.342;2023-08-12T07:57:54;95269.56;;;26.09;53.79
8049;BME280;20935;42.660;23.342;2023-08-12T08:00:40;95263.31;;;26.09;53.75
8049;BME280;20935;42.660;23.342;2023-08-12T08:03:27;95261.31;;;26.09;53.93
8049;BME280;20935;42.660;23.342;2023-08-12T08:06:12;95263.59;;;26.11;54.02
8049;BME280;20935;42.660;23.342;2023-08-12T08:08:57;95268.31;;;26.10;53.55
8049;BME280;20935;42.660;23.342;2023-08-12T08:11:44;95263.59;;;26.11;53.53
8049;BME280;20935;42.660;23.342;2023-08-12T08:14:30;95256.84;;;26.12;53.48
8049;BME280;20935;42.660;23.342;2023-08-12T08:17:15;95262.34;;;26.12;53.31
8049;BME280;20935;42.660;23.342;2023-08-12T08:20:03;95258.84;;;26.11;53.79
8049;BME280;20935;42.660;23.342;2023-08-12T08:22:49;95265.84;;;26.12;53.42
8049;BME280;20935;42.660;23.342;2023-08-12T08:25:34;95263.09;;;26.12;53.92
8049;BME280;20935;42.660;23.342;2023-08-12T08:28:19;95263.38;;;26.14;53.32
8049;BME280;20935;42.660;23.342;2023-08-12T08:31:05;95264.13;;;26.15;53.61
8049;BME280;20935;42.660;23.342;2023-08-12T08:33:50;95259.41;;;26.15;53.18
8049;BME280;20935;42.660;23.342;2023-08-12T08:36:37;95258.91;;;26.17;53.78
8049;BME280;20935;42.660;23.342;2023-08-12T08:39:22;95254.63;;;26.16;53.58
8049;BME280;20935;42.660;23.342;2023-08-12T08:42:09;95253.41;;;26.17;53.38
8049;BME280;20935;42.660;23.342;2023-08-12T08:44:58;95250.66;;;26.17;53.78
8049;BME280;20935;42.660;23.342;2023-08-12T08:47:47;95245.47;;;26.19;53.55
8049;BME280;20935;42.660;23.342;2023-08-12T08:50:33;95238.72;;;26.20;53.87
8049;BME280;20935;42.660;23.342;2023-08-12T08:53:21;95239.50;;;26.21;53.87
8049;BME280;20935;42.660;23.342;2023-08-12T08:56:07;95239.03;;;26.22;53.88
8049;BME280;20935;42.660;23.342;2023-08-12T08:58:55;95242.53;;;26.23;53.96
8049;BME280;20935;42.660;23.342;2023-08-12T09:01:41;95238.50;;;26.24;53.99
8049;BME280;20935;42.660;23.342;2023-08-12T09:04:29;95237.28;;;26.25;54.19
8049;BME280;20935;42.660;23.342;2023-08-12T09:07:15;95232.56;;;26.25;54.12
8049;BME280;20935;42.660;23.342;2023-08-12T09:10:03;95234.06;;;26.26;54.22
8049;BME280;20935;42.660;23.342;2023-08-12T09:12:49;95231.31;;;26.26;54.27
8049;BME280;20935;42.660;23.342;2023-08-12T09:15:37;95232.84;;;26.27;54.09
8049;BME280;20935;42.660;23.342;2023-08-12T09:18:22;95217.09;;;26.28;53.75
8049;BME280;20935;42.660;23.342;2023-08-12T09:21:08;95226.84;;;26.29;54.29
8049;BME280;20935;42.660;23.342;2023-08-12T09:23:54;95211.88;;;26.30;54.28
8049;BME280;20935;42.660;23.342;2023-08-12T09:26:42;95216.63;;;26.29;54.44
8049;BME280;20935;42.660;23.342;2023-08-12T09:29:29;95214.63;;;26.30;54.09
8049;BME280;20935;42.660;23.342;2023-08-12T09:32:18;95207.13;;;26.30;53.86
8049;BME280;20935;42.660;23.342;2023-08-12T09:35:05;95204.38;;;26.30;53.81
8049;BME280;20935;42.660;23.342;2023-08-12T09:37:50;95209.38;;;26.32;53.44
8049;BME280;20935;42.660;23.342;2023-08-12T09:40:36;95192.91;;;26.32;53.54
8049;BME280;20935;42.660;23.342;2023-08-12T09:43:27;95191.66;;;26.33;53.38
8049;BME280;20935;42.660;23.342;2023-08-12T09:46:13;95188.91;;;26.33;53.14
8049;BME280;20935;42.660;23.342;2023-08-12T09:48:59;95189.69;;;26.33;53.51
8049;BME280;20935;42.660;23.342;2023-08-12T09:51:44;95184.94;;;26.34;53.42
8049;BME280;20935;42.660;23.342;2023-08-12T09:54:31;95190.44;;;26.34;53.80
8049;BME280;20935;42.660;23.342;2023-08-12T09:57:18;95187.22;;;26.35;53.18
8049;BME280;20935;42.660;23.342;2023-08-12T10:00:07;95178.97;;;26.35;52.49
8049;BME280;20935;42.660;23.342;2023-08-12T10:02:58;95185.97;;;26.36;53.17
8049;BME280;20935;42.660;23.342;2023-08-12T10:05:44;95181.97;;;26.37;52.47
8049;BME280;20935;42.660;23.342;2023-08-12T10:08:31;95177.25;;;26.38;52.63
8049;BME280;20935;42.660;23.342;2023-08-12T10:11:18;95178.00;;;26.38;52.80
8049;BME280;20935;42.660;23.342;2023-08-12T10:14:04;95169.75;;;26.38;52.53
8049;BME280;20935;42.660;23.342;2023-08-12T10:16:52;95175.25;;;26.38;52.86
8049;BME280;20935;42.660;23.342;2023-08-12T10:19:43;95168.78;;;26.41;52.44
8049;BME280;20935;42.660;23.342;2023-08-12T10:22:29;95163.28;;;26.41;52.18
8049;BME280;20935;42.660;23.342;2023-08-12T10:25:14;95162.81;;;26.43;52.43
8049;BME280;20935;42.660;23.342;2023-08-12T10:28:00;95153.28;;;26.44;52.23
8049;BME280;20935;42.660;23.342;2023-08-12T10:30:46;95156.03;;;26.44;52.56
8049;BME280;20935;42.660;23.342;2023-08-12T10:33:36;95156.81;;;26.44;51.99
8049;BME280;20935;42.660;23.342;2023-08-12T10:36:22;95146.09;;;26.46;52.46
8049;BME280;20935;42.660;23.342;2023-08-12T10:39:08;95146.84;;;26.47;52.49
8049;BME280;20935;42.660;23.342;2023-08-12T10:41:55;95151.09;;;26.48;52.44
8049;BME280;20935;42.660;23.342;2023-08-12T10:44:49;95143.13;;;26.50;52.33
8049;BME280;20935;42.660;23.342;2023-08-12T10:47:38;95136.09;;;26.49;51.83
8049;BME280;20935;42.660;23.342;2023-08-12T10:50:25;95139.91;;;26.51;52.31
8049;BME280;20935;42.660;23.342;2023-08-12T10:53:24;95133.91;;;26.53;52.15
8049;BME280;20935;42.660;23.342;2023-08-12T10:56:13;95134.66;;;26.53;52.31
8049;BME280;20935;42.660;23.342;2023-08-12T10:58:59;95130.66;;;26.54;52.05
8049;BME280;20935;42.660;23.342;2023-08-12T11:01:44;95136.41;;;26.56;51.62
8049;BME280;20935;42.660;23.342;2023-08-12T11:04:37;95130.91;;;26.56;51.72
8049;BME280;20935;42.660;23.342;2023-08-12T11:07:32;95115.19;;;26.57;52.35
8049;BME280;20935;42.660;23.342;2023-08-12T11:10:21;95117.47;;;26.58;52.07
8049;BME280;20935;42.660;23.342;2023-08-12T11:13:09;95116.19;;;26.59;51.73
8049;BME280;20935;42.660;23.342;2023-08-12T11:16:06;95106.72;;;26.60;52.03
8049;BME280;20935;42.660;23.342;2023-08-12T11:18:51;95113.44;;;26.59;51.84
8049;BME280;20935;42.660;23.342;2023-08-12T11:21:38;95108.22;;;26.61;52.00
8049;BME280;20935;42.660;23.342;2023-08-12T11:24:25;95111.72;;;26.62;52.02
8049;BME280;20935;42.660;23.342;2023-08-12T11:27:12;95118.75;;;26.63;52.23
8049;BME280;20935;42.660;23.342;2023-08-12T11:29:57;95110.75;;;26.65;51.72
8049;BME280;20935;42.660;23.342;2023-08-12T11:32:44;95113.50;;;26.65;51.47
8049;BME280;20935;42.660;23.342;2023-08-12T11:35:30;95095.00;;;26.66;51.87
8049;BME280;20935;42.660;23.342;2023-08-12T11:38:15;95098.78;;;26.68;51.99
8049;BME280;20935;42.660;23.342;2023-08-12T11:41:03;95109.00;;;26.68;52.11
8049;BME280;20935;42.660;23.342;2023-08-12T11:43:48;95106.25;;;26.68;52.27
8049;BME280;20935;42.660;23.342;2023-08-12T11:46:33;95101.53;;;26.68;51.47
8049;BME280;20935;42.660;23.342;2023-08-12T11:49:19;95097.53;;;26.69;51.96
8049;BME280;20935;42.660;23.342;2023-08-12T11:52:04;95100.28;;;26.69;51.63
8049;BME280;20935;42.660;23.342;2023-08-12T11:54:50;95092.31;;;26.71;51.42
8049;BME280;20935;42.660;23.342;2023-08-12T11:57:39;95091.06;;;26.72;51.46
8049;BME280;20935;42.660;23.342;2023-08-12T12:00:25;95093.31;;;26.74;52.39
8049;BME280;20935;42.660;23.342;2023-08-12T12:03:11;95085.06;;;26.74;51.96
8049;BME280;20935;42.660;23.342;2023-08-12T12:05:56;95079.09;;;26.75;51.68
8049;BME280;20935;42.660;23.342;2023-08-12T12:08:44;95089.59;;;26.77;52.24
8049;BME280;20935;42.660;23.342;2023-08-12T12:11:29;95088.81;;;26.76;51.52
8049;BME280;20935;42.660;23.342;2023-08-12T12:14:16;95083.59;;;26.78;52.16
8049;BME280;20935;42.660;23.342;2023-08-12T12:17:07;95087.88;;;26.79;52.19
8049;BME280;20935;42.660;23.342;2023-08-12T12:19:54;95080.84;;;26.78;51.91
8049;BME280;20935;42.660;23.342;2023-08-12T12:22:42;95085.84;;;26.80;51.48
8049;BME280;20935;42.660;23.342;2023-08-12T12:25:29;95078.34;;;26.80;51.55
8049;BME280;20935;42.660;23.342;2023-08-12T12:28:14;95074.84;;;26.80;51.71
8049;BME280;20935;42.660;23.342;2023-08-12T12:31:01;95078.34;;;26.80;52.13
8049;BME280;20935;42.660;23.342;2023-08-12T12:33:46;95072.84;;;26.80;52.21
8049;BME280;20935;42.660;23.342;2023-08-12T12:36:34;95070.09;;;26.80;51.83
8049;BME280;20935;42.660;23.342;2023-08-12T12:39:20;95072.38;;;26.82;52.30
8049;BME280;20935;42.660;23.342;2023-08-12T12:42:07;95063.38;;;26.81;51.56
8049;BME280;20935;42.660;23.342;2023-08-12T12:44:52;95059.38;;;26.82;51.53
8049;BME280;20935;42.660;23.342;2023-08-12T12:47:39;95057.41;;;26.83;52.40
8049;BME280;20935;42.660;23.342;2023-08-12T12:50:24;95055.69;;;26.85;52.15
8049;BME280;20935;42.660;23.342;2023-08-12T12:53:10;95064.69;;;26.86;51.59
8049;BME280;20935;42.660;23.342;2023-08-12T12:55:55;95062.69;;;26.86;51.88
8049;BME280;20935;42.660;23.342;2023-08-12T12:58:41;95058.44;;;26.85;51.97
8049;BME280;20935;42.660;23.342;2023-08-12T13:01:27;95052.94;;;26.85;51.60
8049;BME280;20935;42.660;23.342;2023-08-12T13:04:14;95053.69;;;26.86;52.01
8049;BME280;20935;42.660;23.342;2023-08-12T13:06:59;95046.19;;;26.86;51.77
8049;BME280;20935;42.660;23.342;2023-08-12T13:09:44;95047.69;;;26.87;51.67
8049;BME280;20935;42.660;23.342;2023-08-12T13:12:30;95043.44;;;26.86;51.66
8049;BME280;20935;42.660;23.342;2023-08-12T13:15:16;95043.44;;;26.86;51.50
8049;BME280;20935;42.660;23.342;2023-08-12T13:18:01;95043.44;;;26.86;52.20
8049;BME280;20935;42.660;23.342;2023-08-12T13:20:48;95039.19;;;26.85;52.08
8049;BME280;20935;42.660;23.342;2023-08-12T13:23:33;95041.16;;;26.85;52.02
8049;BME280;20935;42.660;23.342;2023-08-12T13:26:19;95040.41;;;26.84;52.14
8049;BME280;20935;42.660;23.342;2023-08-12T13:29:05;95042.69;;;26.86;52.10
8049;BME280;20935;42.660;23.342;2023-08-12T13:31:50;95038.41;;;26.85;51.66
8049;BME280;20935;42.660;23.342;2023-08-12T13:34:36;95037.66;;;26.84;52.24
8049;BME280;20935;42.660;23.342;2023-08-12T13:37:23;95043.91;;;26.85;51.79
8049;BME280;20935;42.660;23.342;2023-08-12T13:40:08;95041.94;;;26.85;51.77
8049;BME280;20935;42.660;23.342;2023-08-12T13:42:55;95031.41;;;26.84;51.91
8049;BME280;20935;42.660;23.342;2023-08-12T13:45:40;95047.44;;;26.85;51.63
8049;BME280;20935;42.660;23.342;2023-08-12T13:48:26;95045.16;;;26.84;52.41
8049;BME280;20935;42.660;23.342;2023-08-12T13:51:11;95044.41;;;26.83;51.79
8049;BME280;20935;42.660;23.342;2023-08-12T13:53:58;95050.66;;;26.84;51.85
8049;BME280;20935;42.660;23.342;2023-08-12T13:56:44;95049.91;;;26.83;52.13
8049;BME280;20935;42.660;23.342;2023-08-12T13:59:29;95055.41;;;26.83;51.68
8049;BME280;20935;42.660;23.342;2023-08-12T14:02:15;95053.88;;;26.82;52.08
8049;BME280;20935;42.660;23.342;2023-08-12T14:05:00;95054.66;;;26.83;51.63
8049;BME280;20935;42.660;23.342;2023-08-12T14:07:46;95053.88;;;26.82;51.72
8049;BME280;20935;42.660;23.342;2023-08-12T14:10:33;95052.38;;;26.81;52.39
8049;BME280;20935;42.660;23.342;2023-08-12T14:13:18;95057.88;;;26.81;52.11
8049;BME280;20935;42.660;23.342;2023-08-12T14:16:03;95051.63;;;26.81;52.17
8049;BME280;20935;42.660;23.342;2023-08-12T14:18:48;95046.88;;;26.81;51.82
8049;BME280;20935;42.660;23.342;2023-08-12T14:21:34;95052.66;;;26.83;51.74
8049;BME280;20935;42.660;23.342;2023-08-12T14:24:19;95050.66;;;26.84;51.72
8049;BME280;20935;42.660;23.342;2023-08-12T14:27:07;95050.66;;;26.84;52.02
8049;BME280;20935;42.660;23.342;2023-08-12T14:29:52;95054.16;;;26.84;51.55
8049;BME280;20935;42.660;23.342;2023-08-12T14:32:37;95046.66;;;26.85;51.89
8049;BME280;20935;42.660;23.342;2023-08-12T14:35:23;95045.16;;;26.84;51.69
8049;BME280;20935;42.660;23.342;2023-08-12T14:38:09;95046.66;;;26.85;52.05
8049;BME280;20935;42.660;23.342;2023-08-12T14:40:54;95047.91;;;26.84;52.08